sensor_id;sensor_type;location;lat;lon;timestamp;P1;durP1;ratioP1;P2;durP2;ratioP2
51467;SDS011;37545;45.302;-122.946;2023-03-29T19:34:36;9.52;;;4.18;;
51467;SDS011;37545;45.302;-122.946;2023-03-29T19:37:12;9.27;;;4.40;;
51467;SDS011;37545;45.302;-122.946;2023-03-29T19:39:42;10.23;;;4.40;;
51467;SDS011;37545;45.302;-122.946;2023-03-29T19:42:10;9.48;;;4.13;;
51467;SDS011;37545;45.302;-122.946;2023-03-29T19:44:39;8.63;;;4.40;;
51467;SDS011;37545;45.302;-122.946;2023-03-29T19:47:07;12.35;;;4.68;;
51467;SDS011;37545;45.302;-122.946;2023-03-29T19:49:37;10.65;;;4.50;;
51467;SDS011;37545;45.302;-122.946;2023-03-29T19:52:06;6.80;;;3.60;;
51467;SDS011;37545;45.302;-122.946;2023-03-29T19:54:35;11.13;;;5.25;;
51467;SDS011;37545;45.302;-122.946;2023-03-29T19:57:03;10.85;;;4.60;;
51467;SDS011;37545;45.302;-122.946;2023-03-29T19:59:33;12.85;;;6.75;;
51467;SDS011;37545;45.302;-122.946;2023-03-29T20:02:03;10.68;;;5.05;;
51467;SDS011;37545;45.302;-122.946;2023-03-29T20:04:32;9.57;;;4.97;;
51467;SDS011;37545;45.302;-122.946;2023-03-29T20:07:02;9.35;;;4.95;;
51467;SDS011;37545;45.302;-122.946;2023-03-29T20:09:31;16.38;;;7.50;;
51467;SDS011;37545;45.302;-122.946;2023-03-29T20:11:59;9.98;;;4.60;;
51467;SDS011;37545;45.302;-122.946;2023-03-29T20:14:28;8.75;;;4.68;;
51467;SDS011;37545;45.302;-122.946;2023-03-29T20:16:57;10.32;;;4.70;;
51467;SDS011;37545;45.302;-122.946;2023-03-29T20:19:25;11.52;;;5.20;;
51467;SDS011;37545;45.302;-122.946;2023-03-29T20:21:54;8.95;;;4.70;;
51467;SDS011;37545;45.302;-122.946;2023-03-29T20:24:26;11.13;;;4.60;;
51467;SDS011;37545;45.302;-122.946;2023-03-29T20:26:56;12.85;;;6.03;;
51467;SDS011;37545;45.302;-122.946;2023-03-29T20:29:25;11.65;;;6.50;;
51467;SDS011;37545;45.302;-122.946;2023-03-29T20:31:53;10.73;;;4.82;;
51467;SDS011;37545;45.302;-122.946;2023-03-29T20:34:22;9.68;;;4.47;;
51467;SDS011;37545;45.302;-122.946;2023-03-29T20:36:51;7.45;;;3.95;;
51467;SDS011;37545;45.302;-122.946;2023-03-29T20:39:27;8.77;;;4.32;;
51467;SDS011;37545;45.302;-122.946;2023-03-29T20:41:55;8.88;;;4.28;;
51467;SDS011;37545;45.302;-122.946;2023-03-29T20:44:25;9.13;;;3.85;;
51467;SDS011;37545;45.302;-122.946;2023-03-29T20:46:53;7.05;;;3.75;;
51467;SDS011;37545;45.302;-122.946;2023-03-29T20:49:29;7.95;;;4.75;;
51467;SDS011;37545;45.302;-122.946;2023-03-29T20:52:04;8.98;;;4.35;;
51467;SDS011;37545;45.302;-122.946;2023-03-29T20:54:36;8.30;;;3.92;;
51467;SDS011;37545;45.302;-122.946;2023-03-29T20:57:05;7.70;;;3.92;;
51467;SDS011;37545;45.302;-122.946;2023-03-29T20:59:35;7.72;;;3.97;;
51467;SDS011;37545;45.302;-122.946;2023-03-29T21:02:04;7.55;;;4.35;;
51467;SDS011;37545;45.302;-122.946;2023-03-29T21:04:33;6.55;;;3.92;;
51467;SDS011;37545;45.302;-122.946;2023-03-29T21:07:02;6.95;;;3.88;;
51467;SDS011;37545;45.302;-122.946;2023-03-29T21:09:33;7.85;;;4.70;;
51467;SDS011;37545;45.302;-122.946;2023-03-29T21:12:09;8.43;;;3.93;;
51467;SDS011;37545;45.302;-122.946;2023-03-29T21:14:37;7.80;;;4.10;;
51467;SDS011;37545;45.302;-122.946;2023-03-29T21:17:14;7.75;;;4.38;;
51467;SDS011;37545;45.302;-122.946;2023-03-29T21:19:42;7.78;;;4.07;;
51467;SDS011;37545;45.302;-122.946;2023-03-29T21:22:11;6.03;;;4.00;;
51467;SDS011;37545;45.302;-122.946;2023-03-29T21:24:41;7.97;;;3.97;;
51467;SDS011;37545;45.302;-122.946;2023-03-29T21:27:09;9.20;;;4.13;;
51467;SDS011;37545;45.302;-122.946;2023-03-29T21:29:38;6.57;;;4.60;;
51467;SDS011;37545;45.302;-122.946;2023-03-29T21:32:06;8.32;;;4.53;;
51467;SDS011;37545;45.302;-122.946;2023-03-29T21:34:35;6.30;;;3.90;;
51467;SDS011;37545;45.302;-122.946;2023-03-29T21:37:03;9.00;;;4.78;;
51467;SDS011;37545;45.302;-122.946;2023-03-29T21:39:32;7.25;;;4.20;;
51467;SDS011;37545;45.302;-122.946;2023-03-29T21:42:02;7.00;;;4.40;;
51467;SDS011;37545;45.302;-122.946;2023-03-29T21:44:31;7.57;;;3.88;;
51467;SDS011;37545;45.302;-122.946;2023-03-29T21:47:02;8.63;;;5.13;;
51467;SDS011;37545;45.302;-122.946;2023-03-29T21:49:30;7.60;;;4.65;;
51467;SDS011;37545;45.302;-122.946;2023-03-29T21:51:59;7.15;;;4.53;;
51467;SDS011;37545;45.302;-122.946;2023-03-29T21:54:27;8.63;;;5.18;;
51467;SDS011;37545;45.302;-122.946;2023-03-29T21:56:55;8.65;;;4.88;;
51467;SDS011;37545;45.302;-122.946;2023-03-29T21:59:25;6.25;;;4.03;;
51467;SDS011;37545;45.302;-122.946;2023-03-29T22:01:56;7.85;;;4.82;;
51467;SDS011;37545;45.302;-122.946;2023-03-29T22:04:27;7.05;;;4.72;;
51467;SDS011;37545;45.302;-122.946;2023-03-29T22:06:56;9.23;;;4.80;;
51467;SDS011;37545;45.302;-122.946;2023-03-29T22:09:25;7.22;;;4.30;;
51467;SDS011;37545;45.302;-122.946;2023-03-29T22:11:53;7.50;;;5.03;;
51467;SDS011;37545;45.302;-122.946;2023-03-29T22:14:25;8.95;;;5.40;;
51467;SDS011;37545;45.302;-122.946;2023-03-29T22:16:54;9.23;;;4.20;;
51467;SDS011;37545;45.302;-122.946;2023-03-29T22:19:23;7.70;;;4.20;;
51467;SDS011;37545;45.302;-122.946;2023-03-29T22:21:51;6.72;;;3.97;;
51467;SDS011;37545;45.302;-122.946;2023-03-29T22:24:26;6.25;;;4.22;;
51467;SDS011;37545;45.302;-122.946;2023-03-29T22:26:55;6.70;;;3.80;;
51467;SDS011;37545;45.302;-122.946;2023-03-29T22:29:25;5.90;;;3.88;;
51467;SDS011;37545;45.302;-122.946;2023-03-29T22:31:54;5.75;;;4.45;;
51467;SDS011;37545;45.302;-122.946;2023-03-29T22:34:25;8.02;;;4.63;;
51467;SDS011;37545;45.302;-122.946;2023-03-29T22:36:54;5.13;;;3.50;;
51467;SDS011;37545;45.302;-122.946;2023-03-29T22:39:23;7.28;;;4.05;;
51467;SDS011;37545;45.302;-122.946;2023-03-29T22:41:53;5.72;;;3.75;;
51467;SDS011;37545;45.302;-122.946;2023-03-29T22:44:22;6.35;;;3.58;;
51467;SDS011;37545;45.302;-122.946;2023-03-29T22:46:53;4.97;;;3.25;;
51467;SDS011;37545;45.302;-122.946;2023-03-29T22:49:24;6.47;;;3.90;;
51467;SDS011;37545;45.302;-122.946;2023-03-29T22:52:08;5.78;;;3.65;;
51467;SDS011;37545;45.302;-122.946;2023-03-29T22:57:05;6.47;;;4.78;;
51467;SDS011;37545;45.302;-122.946;2023-03-29T22:59:33;6.10;;;3.70;;
51467;SDS011;37545;45.302;-122.946;2023-03-29T23:02:03;6.85;;;3.67;;
51467;SDS011;37545;45.302;-122.946;2023-03-29T23:04:32;6.18;;;4.15;;
51467;SDS011;37545;45.302;-122.946;2023-03-29T23:07:01;6.38;;;4.15;;
51467;SDS011;37545;45.302;-122.946;2023-03-29T23:09:29;6.80;;;4.60;;
51467;SDS011;37545;45.302;-122.946;2023-03-29T23:11:58;6.43;;;4.72;;
51467;SDS011;37545;45.302;-122.946;2023-03-29T23:14:26;4.57;;;3.33;;
51467;SDS011;37545;45.302;-122.946;2023-03-29T23:16:54;6.55;;;4.68;;
51467;SDS011;37545;45.302;-122.946;2023-03-29T23:19:25;6.28;;;3.92;;
51467;SDS011;37545;45.302;-122.946;2023-03-29T23:22:23;6.78;;;5.25;;
51467;SDS011;37545;45.302;-122.946;2023-03-29T23:24:52;7.15;;;4.70;;
51467;SDS011;37545;45.302;-122.946;2023-03-29T23:27:20;6.25;;;4.28;;
51467;SDS011;37545;45.302;-122.946;2023-03-29T23:29:51;5.38;;;3.97;;
51467;SDS011;37545;45.302;-122.946;2023-03-29T23:32:19;6.85;;;4.10;;
51467;SDS011;37545;45.302;-122.946;2023-03-29T23:34:56;6.03;;;4.13;;
51467;SDS011;37545;45.302;-122.946;2023-03-29T23:37:26;5.63;;;3.45;;
51467;SDS011;37545;45.302;-122.946;2023-03-29T23:39:54;6.18;;;4.25;;
51467;SDS011;37545;45.302;-122.946;2023-03-29T23:42:23;4.97;;;3.38;;
51467;SDS011;37545;45.302;-122.946;2023-03-29T23:44:51;6.15;;;3.47;;
51467;SDS011;37545;45.302;-122.946;2023-03-29T23:47:20;6.65;;;3.97;;
51467;SDS011;37545;45.302;-122.946;2023-03-29T23:49:49;6.75;;;4.82;;
51467;SDS011;37545;45.302;-122.946;2023-03-29T23:52:19;5.15;;;3.60;;
51467;SDS011;37545;45.302;-122.946;2023-03-29T23:54:48;5.82;;;3.80;;
51467;SDS011;37545;45.302;-122.946;2023-03-29T23:57:17;5.93;;;4.25;;
51467;SDS011;37545;45.302;-122.946;2023-03-29T23:59:45;7.53;;;5.15;;
